Time;durP1;ratioP1;P1;durP2;ratioP2;P2;SDS_P1;SDS_P2;PMS_P1;PMS_P2;Temp;Humidity;BMP_temperature;BMP_pressure;BME280_temperature;BME280_humidity;BME280_pressure;Samples;Min_cycle;Max_cycle;Signal;HPM_P1;HPM_P2
2021/09/02 00:00:29;;;;;;;5.03;2.50;;;;;;;18.26;96.13;102022.94;4993607;28;20037;-67
2021/09/02 00:02:54;;;;;;;5.65;2.33;;;;;;;18.27;96.06;102015.53;4995223;28;20058;-69
2021/09/02 00:05:20;;;;;;;6.20;2.38;;;;;;;18.10;97.27;102016.91;5000502;28;20109;-69
2021/09/02 00:07:45;;;;;;;6.57;2.58;;;;;;;18.20;97.17;102010.78;4994104;28;20414;-67
2021/09/02 00:10:11;;;;;;;7.32;2.65;;;;;;;18.28;97.27;102006.19;4991128;28;20030;-68
2021/09/02 00:12:37;;;;;;;5.85;2.47;;;;;;;18.30;96.82;102009.31;4982153;28;20462;-69
2021/09/02 00:15:03;;;;;;;8.43;2.53;;;;;;;18.25;96.62;102001.50;4993673;28;20046;-68
2021/09/02 00:17:29;;;;;;;8.25;2.50;;;;;;;18.27;96.90;101997.25;4989963;28;20116;-69
2021/09/02 00:19:54;;;;;;;6.78;2.38;;;;;;;18.18;96.58;102004.13;4992511;28;20446;-69
2021/09/02 00:22:20;;;;;;;8.27;2.95;;;;;;;18.14;96.99;102006.06;4985426;28;20081;-67
2021/09/02 00:24:45;;;;;;;7.45;3.15;;;;;;;18.17;96.89;102011.53;4989224;28;20125;-67
2021/09/02 00:27:11;;;;;;;6.47;2.58;;;;;;;18.18;97.39;102006.84;4992974;28;20068;-68
2021/09/02 00:29:36;;;;;;;4.80;2.42;;;;;;;18.20;97.42;102008.06;4990119;28;20042;-69
2021/09/02 00:32:02;;;;;;;6.65;2.72;;;;;;;18.19;96.92;102006.50;4991104;28;20076;-69
2021/09/02 00:34:27;;;;;;;6.15;2.28;;;;;;;18.15;97.44;102005.69;4993507;28;20042;-68
2021/09/02 00:36:53;;;;;;;8.23;3.40;;;;;;;18.16;97.66;102003.72;4993285;28;20049;-68
2021/09/02 00:39:19;;;;;;;5.28;2.63;;;;;;;18.19;97.26;102002.97;4986073;28;20490;-69
2021/09/02 00:41:45;;;;;;;6.45;2.97;;;;;;;18.20;97.59;101999.09;4992908;28;20483;-68
2021/09/02 00:44:10;;;;;;;8.52;2.65;;;;;;;18.16;97.38;102007.22;4993291;28;20056;-69
2021/09/02 00:46:35;;;;;;;8.30;2.85;;;;;;;18.14;97.62;102003.31;4989540;28;20069;-66
2021/09/02 00:49:01;;;;;;;6.72;2.28;;;;;;;17.95;97.60;101999.59;4992913;28;20073;-68
2021/09/02 00:51:26;;;;;;;7.03;2.70;;;;;;;17.95;98.12;102002.31;4992565;28;20070;-68
2021/09/02 00:53:54;;;;;;;7.32;2.58;;;;;;;17.96;98.12;101994.94;4980202;28;20393;-67
2021/09/02 00:56:20;;;;;;;6.20;2.30;;;;;;;17.98;97.97;102000.81;4992229;28;20034;-69
2021/09/02 00:58:47;;;;;;;5.20;2.20;;;;;;;17.82;98.01;101998.28;4992919;28;20442;-68
2021/09/02 01:01:16;;;;;;;4.88;2.60;;;;;;;17.87;97.55;101992.47;4985292;28;20049;-68
2021/09/02 01:03:43;;;;;;;7.43;2.13;;;;;;;17.80;97.47;101995.13;4990464;28;20602;-68
2021/09/02 01:06:08;;;;;;;5.25;2.28;;;;;;;17.81;97.91;101988.50;4991874;28;20093;-69
2021/09/02 01:08:34;;;;;;;6.82;2.17;;;;;;;17.80;98.33;101999.78;4992500;28;20498;-68
2021/09/02 01:11:00;;;;;;;4.47;2.30;;;;;;;17.79;97.67;101984.59;4982407;28;20030;-68
2021/09/02 01:13:26;;;;;;;4.72;2.40;;;;;;;17.83;97.68;101986.22;4992188;28;20372;-68
2021/09/02 01:15:52;;;;;;;5.15;2.63;;;;;;;17.80;97.22;101986.97;4991721;28;20129;-68
2021/09/02 01:18:18;;;;;;;5.40;2.25;;;;;;;17.71;96.95;101983.72;4988316;28;20038;-69
2021/09/02 01:20:44;;;;;;;5.93;2.40;;;;;;;17.52;96.83;101970.22;4989021;28;20116;-68
2021/09/02 01:23:09;;;;;;;6.95;2.60;;;;;;;17.27;97.88;101977.25;4991013;28;20034;-67
2021/09/02 01:25:42;;;;;;;5.38;2.65;;;;;;;17.21;98.18;101988.84;4986487;28;20038;-67
2021/09/02 01:28:10;;;;;;;5.80;2.42;;;;;;;17.25;98.25;101979.53;4991001;28;20081;-67
2021/09/02 01:30:36;;;;;;;9.13;3.28;;;;;;;17.09;98.61;101981.66;4990931;28;20046;-68
2021/09/02 01:33:02;;;;;;;7.13;2.70;;;;;;;16.90;98.70;101982.50;4985807;28;20454;-68
2021/09/02 01:35:31;;;;;;;8.23;2.70;;;;;;;16.76;99.91;101981.50;4985869;28;20157;-67
2021/09/02 01:38:00;;;;;;;4.93;2.38;;;;;;;16.84;100.00;101977.75;4991917;28;20429;-67
2021/09/02 01:40:31;;;;;;;7.10;2.40;;;;;;;16.87;99.95;101974.31;4992130;28;20105;-67
2021/09/02 01:42:58;;;;;;;6.18;2.25;;;;;;;16.84;99.86;101969.59;4987298;28;20030;-67
2021/09/02 01:45:23;;;;;;;9.10;2.78;;;;;;;16.68;100.00;101982.53;4990773;28;20034;-68
2021/09/02 01:47:49;;;;;;;8.02;2.67;;;;;;;16.67;100.00;101978.22;4991796;28;20030;-67
2021/09/02 01:50:21;;;;;;;4.75;2.30;;;;;;;16.63;100.00;101978.19;4986843;28;20510;-68
2021/09/02 01:52:48;;;;;;;8.10;3.00;;;;;;;16.76;99.70;101976.06;4990447;28;20033;-67
2021/09/02 01:55:14;;;;;;;6.80;2.38;;;;;;;16.77;99.80;101983.06;4991852;28;20034;-69
2021/09/02 01:57:40;;;;;;;8.32;2.72;;;;;;;16.79;100.00;101978.06;5008803;28;20030;-68
2021/09/02 02:00:08;;;;;;;6.15;2.65;;;;;;;16.89;100.00;101986.41;4991531;28;20034;-68
2021/09/02 02:02:34;;;;;;;6.20;2.85;;;;;;;16.79;100.00;101987.00;4990427;28;20034;-68
2021/09/02 02:04:59;;;;;;;7.68;2.95;;;;;;;16.76;100.00;101992.41;4987765;28;20553;-68
2021/09/02 02:07:28;;;;;;;7.55;2.90;;;;;;;16.85;100.00;101990.19;4988035;28;20042;-67
2021/09/02 02:09:53;;;;;;;6.57;2.28;;;;;;;17.00;100.00;101990.06;4991699;28;20085;-67
2021/09/02 02:12:19;;;;;;;9.30;2.80;;;;;;;17.10;100.00;101985.94;4988658;28;20038;-68
2021/09/02 02:14:45;;;;;;;5.82;2.58;;;;;;;17.18;100.00;101987.63;4968962;28;20058;-68
2021/09/02 02:17:11;;;;;;;5.60;2.50;;;;;;;17.27;100.00;101982.69;4987841;28;20499;-68
2021/09/02 02:19:36;;;;;;;4.40;2.42;;;;;;;17.39;100.00;101982.47;4991678;28;20027;-69
2021/09/02 02:22:03;;;;;;;7.25;3.00;;;;;;;17.46;100.00;101987.25;4981244;28;20622;-67
2021/09/02 02:24:28;;;;;;;5.40;3.17;;;;;;;17.42;100.00;101986.41;4990119;28;20049;-68
2021/09/02 02:26:54;;;;;;;7.07;2.85;;;;;;;17.51;100.00;101986.94;4987426;28;20034;-67
2021/09/02 02:29:19;;;;;;;7.57;2.63;;;;;;;17.53;100.00;101981.91;4985114;28;20034;-67
2021/09/02 02:31:45;;;;;;;8.05;2.95;;;;;;;17.57;100.00;101978.09;4989380;28;20462;-68
2021/09/02 02:34:11;;;;;;;6.55;3.13;;;;;;;17.52;100.00;101991.22;4990787;28;20524;-68
2021/09/02 02:36:36;;;;;;;7.30;3.40;;;;;;;17.57;100.00;101991.72;4979827;28;20037;-67
2021/09/02 02:39:03;;;;;;;7.18;2.92;;;;;;;17.62;100.00;101982.41;4990106;28;20549;-67
2021/09/02 02:41:29;;;;;;;5.07;2.60;;;;;;;17.59;100.00;101980.44;4990720;28;20038;-68
2021/09/02 02:43:54;;;;;;;5.55;2.75;;;;;;;17.50;100.00;101980.72;4991257;28;20045;-68
2021/09/02 02:46:19;;;;;;;8.70;2.80;;;;;;;17.51;100.00;101984.22;4984848;28;20038;-67
2021/09/02 02:48:45;;;;;;;5.63;2.70;;;;;;;17.50;100.00;101982.66;4990647;28;20108;-67
2021/09/02 02:51:11;;;;;;;4.88;2.67;;;;;;;17.49;100.00;101978.34;4990565;28;20880;-67
2021/09/02 02:53:36;;;;;;;7.68;2.80;;;;;;;17.56;100.00;101981.16;4982278;28;20045;-68
2021/09/02 02:56:02;;;;;;;7.35;3.20;;;;;;;17.55;100.00;101979.63;5002058;28;20045;-70
2021/09/02 02:58:27;;;;;;;6.95;2.70;;;;;;;17.61;100.00;101978.94;4986716;28;20045;-67
2021/09/02 03:00:53;;;;;;;7.05;2.72;;;;;;;17.68;100.00;101976.28;4989608;28;20030;-68
2021/09/02 03:03:18;;;;;;;7.20;2.70;;;;;;;17.68;100.00;101973.56;4990507;28;20034;-68
2021/09/02 03:05:44;;;;;;;6.53;3.05;;;;;;;17.69;100.00;101971.63;4990315;28;20462;-68
2021/09/02 03:08:09;;;;;;;5.63;2.85;;;;;;;17.56;100.00;101973.78;4989233;28;20050;-68
2021/09/02 03:10:35;;;;;;;8.98;2.95;;;;;;;17.37;100.00;101968.44;4990579;28;20502;-69
2021/09/02 03:13:00;;;;;;;4.45;2.33;;;;;;;17.28;100.00;101967.94;4990270;28;20105;-68
2021/09/02 03:15:26;;;;;;;8.02;2.30;;;;;;;17.26;100.00;101970.25;4993318;28;20096;-68
2021/09/02 03:17:52;;;;;;;7.10;2.65;;;;;;;17.31;100.00;101969.91;4997033;28;20038;-69
2021/09/02 03:20:17;;;;;;;6.25;2.63;;;;;;;17.22;100.00;101974.84;4990794;28;20057;-68
2021/09/02 03:22:43;;;;;;;8.77;2.60;;;;;;;17.09;100.00;101973.50;4984949;28;20506;-69
2021/09/02 03:25:09;;;;;;;9.20;2.83;;;;;;;17.16;100.00;101973.59;4990360;28;20034;-68
2021/09/02 03:27:36;;;;;;;8.38;2.60;;;;;;;17.21;100.00;101970.53;4985943;28;20558;-70
2021/09/02 03:30:04;;;;;;;6.00;2.50;;;;;;;17.23;100.00;101973.69;4987129;28;20026;-69
2021/09/02 03:32:29;;;;;;;7.90;2.60;;;;;;;17.09;100.00;101968.81;4978454;28;20426;-68
2021/09/02 03:34:55;;;;;;;4.80;2.67;;;;;;;17.12;100.00;101970.03;4973024;28;20041;-70
2021/09/02 03:37:20;;;;;;;6.28;2.90;;;;;;;16.99;100.00;101985.00;4976318;28;20050;-69
2021/09/02 03:39:46;;;;;;;7.05;2.50;;;;;;;17.11;100.00;101982.84;4978254;28;20114;-68
2021/09/02 03:42:11;;;;;;;6.22;2.80;;;;;;;17.20;100.00;101979.06;4976172;28;20062;-68
2021/09/02 03:44:37;;;;;;;5.88;2.92;;;;;;;17.26;100.00;101992.03;4974293;28;20038;-68
2021/09/02 03:47:02;;;;;;;6.20;2.63;;;;;;;17.22;100.00;101982.22;4971896;28;20098;-68
2021/09/02 03:49:28;;;;;;;6.72;2.72;;;;;;;17.34;100.00;101988.25;4986891;28;20034;-69
2021/09/02 03:51:53;;;;;;;4.03;2.50;;;;;;;17.39;100.00;101984.41;4982305;28;20442;-68
2021/09/02 03:54:19;;;;;;;7.72;2.63;;;;;;;17.35;100.00;101989.81;4985414;28;20453;-68
2021/09/02 03:56:44;;;;;;;6.97;2.53;;;;;;;17.33;100.00;101989.41;4989592;28;20523;-68
2021/09/02 03:59:10;;;;;;;5.95;2.85;;;;;;;17.42;100.00;101992.63;4989800;28;20065;-69
2021/09/02 04:01:35;;;;;;;7.80;2.83;;;;;;;17.43;100.00;101990.69;4983643;28;20038;-69
2021/09/02 04:04:01;;;;;;;7.82;2.83;;;;;;;17.47;100.00;101991.53;4978067;28;20038;-69
2021/09/02 04:06:26;;;;;;;4.82;2.45;;;;;;;17.47;100.00;101995.06;4988090;28;20045;-69
2021/09/02 04:08:52;;;;;;;6.20;3.20;;;;;;;17.49;100.00;101987.31;4988992;28;20117;-68
2021/09/02 04:11:17;;;;;;;5.38;2.97;;;;;;;17.44;100.00;101993.03;4993324;28;20034;-68
2021/09/02 04:13:43;;;;;;;5.25;2.70;;;;;;;17.49;100.00;101994.72;4987657;28;20376;-71
2021/09/02 04:16:09;;;;;;;6.60;3.00;;;;;;;17.48;100.00;101995.84;4989889;28;20806;-69
2021/09/02 04:18:34;;;;;;;4.63;2.55;;;;;;;17.41;100.00;101993.78;4993214;28;20157;-70
2021/09/02 04:21:04;;;;;;;5.32;2.72;;;;;;;17.39;100.00;101987.94;4992060;28;20058;-68
2021/09/02 04:23:30;;;;;;;6.35;2.85;;;;;;;17.33;100.00;101997.56;4993775;28;20045;-69
2021/09/02 04:25:55;;;;;;;5.95;2.42;;;;;;;17.40;100.00;101989.47;4985113;28;20038;-68
2021/09/02 04:28:21;;;;;;;9.52;2.97;;;;;;;17.40;100.00;101992.22;4993167;28;20124;-67
2021/09/02 04:30:46;;;;;;;8.23;3.17;;;;;;;17.43;100.00;101983.31;4989262;28;20383;-67
2021/09/02 04:33:12;;;;;;;7.25;3.08;;;;;;;17.35;100.00;101984.38;4990732;28;20034;-68
2021/09/02 04:35:37;;;;;;;8.68;3.08;;;;;;;17.29;100.00;101983.09;4986131;28;20117;-68
2021/09/02 04:38:03;;;;;;;7.25;3.22;;;;;;;17.30;100.00;101990.13;4975078;28;20058;-68
2021/09/02 04:40:28;;;;;;;8.82;3.22;;;;;;;17.32;100.00;101996.00;4991879;28;20476;-69
2021/09/02 04:42:54;;;;;;;7.50;2.95;;;;;;;17.33;100.00;101992.13;4989832;28;20072;-69
2021/09/02 04:45:19;;;;;;;6.75;2.90;;;;;;;17.26;100.00;101988.50;4986402;28;20432;-68
2021/09/02 04:47:45;;;;;;;7.05;3.42;;;;;;;17.30;100.00;101997.50;5025104;22;20033;-69
2021/09/02 04:50:11;;;;;;;5.45;2.55;;;;;;;17.31;100.00;101990.91;5011258;28;20095;-68
2021/09/02 04:52:37;;;;;;;6.00;2.47;;;;;;;17.31;100.00;102004.53;5010842;28;20025;-69
2021/09/02 04:55:04;;;;;;;8.38;3.10;;;;;;;17.26;100.00;101996.69;5028124;28;20547;-69
2021/09/02 04:57:29;;;;;;;5.95;2.92;;;;;;;17.26;100.00;101991.22;5031353;28;20029;-69
2021/09/02 04:59:54;;;;;;;7.28;2.75;;;;;;;17.22;100.00;101996.63;5020068;28;20036;-69
2021/09/02 05:02:20;;;;;;;6.57;3.15;;;;;;;17.27;100.00;101992.78;5014538;28;20048;-69
2021/09/02 05:04:45;;;;;;;7.63;3.22;;;;;;;17.23;100.00;101995.47;5028165;28;20023;-69
2021/09/02 05:07:11;;;;;;;5.20;2.83;;;;;;;17.27;100.00;101995.50;5015949;28;20048;-69
2021/09/02 05:09:37;;;;;;;6.07;2.83;;;;;;;17.22;100.00;102002.06;5030575;28;20049;-69
2021/09/02 05:12:03;;;;;;;6.53;3.15;;;;;;;17.24;100.00;102002.50;5027992;28;20044;-70
2021/09/02 05:14:28;;;;;;;7.60;3.35;;;;;;;17.24;100.00;102002.50;5026290;28;20033;-69
2021/09/02 05:16:55;;;;;;;7.18;3.25;;;;;;;17.22;100.00;102004.78;5004941;28;20087;-69
2021/09/02 05:19:20;;;;;;;9.82;3.08;;;;;;;17.22;100.00;102004.78;5029851;28;20051;-70
2021/09/02 05:21:45;;;;;;;5.38;2.58;;;;;;;17.24;100.00;102013.38;5022391;28;20129;-69
2021/09/02 05:24:11;;;;;;;6.72;2.88;;;;;;;17.28;100.00;102013.44;5026658;28;20112;-68
2021/09/02 05:26:37;;;;;;;6.78;2.78;;;;;;;17.26;100.00;102018.47;5024100;28;20474;-68
2021/09/02 05:29:02;;;;;;;6.00;2.80;;;;;;;17.20;100.00;102003.59;5011692;28;20212;-69
2021/09/02 05:31:28;;;;;;;7.25;2.85;;;;;;;17.36;100.00;102010.47;5005397;28;20076;-68
2021/09/02 05:33:53;;;;;;;9.43;2.83;;;;;;;17.44;100.00;102016.78;5028151;28;20091;-69
2021/09/02 05:36:19;;;;;;;5.10;2.83;;;;;;;17.45;100.00;102018.34;5030442;28;20041;-69
2021/09/02 05:38:45;;;;;;;9.77;3.15;;;;;;;17.42;100.00;102014.41;5023089;28;20108;-69
2021/09/02 05:41:10;;;;;;;8.90;3.47;;;;;;;17.33;100.00;102010.38;5007805;28;20125;-68
2021/09/02 05:43:36;;;;;;;6.97;2.67;;;;;;;17.41;100.00;102001.16;5029467;28;20036;-69
2021/09/02 05:46:02;;;;;;;9.23;2.78;;;;;;;17.41;100.00;102007.41;5030060;28;20033;-68
2021/09/02 05:48:28;;;;;;;7.80;3.17;;;;;;;17.48;100.00;102010.25;5023335;28;20033;-68
2021/09/02 05:50:53;;;;;;;8.13;3.10;;;;;;;17.55;100.00;102017.75;5029825;28;20399;-69
2021/09/02 05:53:20;;;;;;;7.47;2.92;;;;;;;17.57;100.00;102020.91;5024245;28;20038;-69
2021/09/02 05:55:45;;;;;;;5.55;2.80;;;;;;;17.60;100.00;102014.69;5030665;28;20037;-68
2021/09/02 05:58:11;;;;;;;4.32;2.33;;;;;;;17.57;100.00;102020.91;5022551;28;20934;-68
2021/09/02 06:00:37;;;;;;;7.15;2.47;;;;;;;17.65;100.00;102017.13;5023657;28;20379;-69
2021/09/02 06:03:02;;;;;;;6.38;2.60;;;;;;;17.61;100.00;102027.97;5020003;28;20048;-68
2021/09/02 06:05:27;;;;;;;6.03;2.83;;;;;;;17.63;100.00;102024.88;5028061;28;20025;-68
2021/09/02 06:07:53;;;;;;;9.20;3.20;;;;;;;17.66;100.00;102024.13;5023991;28;20061;-68
2021/09/02 06:10:19;;;;;;;6.25;2.70;;;;;;;17.69;100.00;102018.72;5025589;28;20041;-68
2021/09/02 06:12:44;;;;;;;4.95;2.35;;;;;;;17.68;100.00;102022.63;5022800;28;20085;-68
2021/09/02 06:15:10;;;;;;;8.20;2.90;;;;;;;17.70;100.00;102019.50;5016582;28;20034;-68
2021/09/02 06:17:36;;;;;;;12.02;2.83;;;;;;;17.63;100.00;102020.22;5008515;28;20040;-69
2021/09/02 06:20:03;;;;;;;7.82;2.97;;;;;;;17.81;100.00;102032.13;5017281;28;20042;-69
2021/09/02 06:22:29;;;;;;;7.90;2.90;;;;;;;17.77;100.00;102031.28;5021069;28;20060;-68
2021/09/02 06:24:54;;;;;;;4.32;2.90;;;;;;;17.78;100.00;102038.31;5021798;28;20025;-69
2021/09/02 06:27:20;;;;;;;5.72;2.92;;;;;;;17.77;100.00;102036.75;5027452;28;20034;-68
2021/09/02 06:29:45;;;;;;;7.88;3.42;;;;;;;17.78;100.00;102048.44;5022649;28;20038;-68
2021/09/02 06:32:11;;;;;;;8.40;3.08;;;;;;;17.83;100.00;102043.44;5026093;28;20128;-69
2021/09/02 06:34:36;;;;;;;11.20;3.03;;;;;;;17.81;100.00;102044.97;5009155;28;20477;-68
2021/09/02 06:37:02;;;;;;;6.93;2.75;;;;;;;17.85;100.00;102043.88;5012377;28;20040;-70
2021/09/02 06:39:27;;;;;;;7.97;3.08;;;;;;;17.83;100.00;102048.09;5020211;28;20040;-68
2021/09/02 06:41:52;;;;;;;6.72;2.85;;;;;;;17.89;100.00;102033.00;5029414;28;20840;-69
2021/09/02 06:44:18;;;;;;;6.65;2.83;;;;;;;18.01;100.00;102044.47;5027927;28;20112;-68
2021/09/02 06:46:43;;;;;;;7.68;3.20;;;;;;;18.09;100.00;102036.38;5023835;28;20112;-68
2021/09/02 06:49:09;;;;;;;6.45;3.10;;;;;;;18.12;100.00;102039.13;5025555;28;20094;-68
2021/09/02 06:51:36;;;;;;;7.30;3.13;;;;;;;18.13;100.00;102048.09;5021027;28;20068;-68
2021/09/02 06:54:02;;;;;;;5.95;2.92;;;;;;;18.22;100.00;102046.66;5023139;28;20033;-68
2021/09/02 06:56:28;;;;;;;7.43;3.30;;;;;;;18.24;100.00;102049.00;5010727;28;20103;-68
2021/09/02 06:58:53;;;;;;;10.95;2.83;;;;;;;18.33;100.00;102047.56;5022338;28;20033;-69
2021/09/02 07:01:18;;;;;;;7.07;3.03;;;;;;;18.42;99.79;102055.47;5014481;28;20389;-68
2021/09/02 07:03:44;;;;;;;8.60;3.17;;;;;;;18.42;99.71;102056.28;5014993;28;20029;-69
2021/09/02 07:06:10;;;;;;;8.98;3.33;;;;;;;18.39;100.00;102059.72;5022079;28;20045;-69
2021/09/02 07:08:36;;;;;;;7.00;3.20;;;;;;;18.34;100.00;102051.06;5025054;28;20052;-69
2021/09/02 07:11:03;;;;;;;8.18;3.03;;;;;;;18.33;100.00;102063.16;5013572;28;20037;-69
2021/09/02 07:13:28;;;;;;;6.65;3.25;;;;;;;18.35;100.00;102060.84;5025227;28;20112;-69
2021/09/02 07:15:54;;;;;;;10.55;3.13;;;;;;;18.39;100.00;102062.44;5021604;28;20609;-69
2021/09/02 07:18:19;;;;;;;7.75;3.28;;;;;;;18.44;99.89;102064.09;5027128;28;20041;-68
2021/09/02 07:20:45;;;;;;;10.90;3.58;;;;;;;18.51;99.51;102073.13;5022108;28;20116;-69
2021/09/02 07:23:10;;;;;;;8.82;3.15;;;;;;;18.52;99.86;102071.19;5022528;28;20037;-68
2021/09/02 07:25:36;;;;;;;13.80;3.08;;;;;;;18.57;99.42;102077.09;5026377;28;20505;-69
2021/09/02 07:28:01;;;;;;;11.68;3.63;;;;;;;18.55;100.00;102081.34;5023382;28;20499;-68
2021/09/02 07:30:27;;;;;;;9.25;3.60;;;;;;;18.59;99.79;102079.44;5024036;28;20452;-69
2021/09/02 07:32:52;;;;;;;7.15;2.80;;;;;;;18.63;99.77;102091.19;5016507;28;20049;-69
2021/09/02 07:35:18;;;;;;;7.72;3.35;;;;;;;18.68;98.86;102088.91;5025519;28;20037;-69
2021/09/02 07:37:43;;;;;;;8.20;3.40;;;;;;;18.76;98.71;102084.31;5013150;28;20033;-69
2021/09/02 07:40:10;;;;;;;11.05;3.78;;;;;;;18.75;98.25;102090.94;5023218;28;20547;-69
2021/09/02 07:42:36;;;;;;;8.30;3.60;;;;;;;18.71;98.61;102090.91;5027263;28;20450;-69
2021/09/02 07:45:02;;;;;;;11.10;3.08;;;;;;;18.62;99.28;102092.38;5009158;28;20029;-69
2021/09/02 07:47:28;;;;;;;11.27;3.78;;;;;;;18.69;99.11;102097.88;5024752;28;20087;-69
2021/09/02 07:49:53;;;;;;;8.68;3.55;;;;;;;18.69;99.12;102093.22;5023821;28;20055;-69
2021/09/02 07:52:19;;;;;;;14.30;4.13;;;;;;;18.69;99.65;102098.69;5012524;28;20029;-69
2021/09/02 07:54:45;;;;;;;10.98;3.85;;;;;;;18.69;99.59;102101.41;5018156;28;20061;-69
2021/09/02 07:57:10;;;;;;;6.38;3.17;;;;;;;18.75;98.99;102104.59;5008454;28;20037;-69
2021/09/02 07:59:35;;;;;;;8.65;3.53;;;;;;;18.80;98.88;102096.03;5028631;28;20047;-69
2021/09/02 08:02:01;;;;;;;9.15;3.40;;;;;;;18.90;98.58;102087.97;5020927;28;20037;-69
2021/09/02 08:04:26;;;;;;;6.88;2.80;;;;;;;18.94;98.10;102088.00;5028455;28;20044;-69
2021/09/02 08:06:52;;;;;;;6.63;3.38;;;;;;;18.98;96.52;102099.75;5029498;28;20064;-69
2021/09/02 08:09:17;;;;;;;7.82;3.40;;;;;;;18.98;96.43;102094.28;5023694;28;20129;-69
2021/09/02 08:12:03;;;;;;;8.05;3.22;;;;;;;19.04;96.27;102087.31;5021754;28;20128;-69
2021/09/02 08:14:29;;;;;;;7.25;3.13;;;;;;;19.07;96.39;102092.00;4945236;28;20110;-69
2021/09/02 08:16:54;;;;;;;9.35;3.90;;;;;;;19.12;96.66;102101.81;4949026;28;20061;-69
2021/09/02 08:19:20;;;;;;;9.57;3.47;;;;;;;19.12;96.65;102105.34;4948476;28;20050;-69
2021/09/02 08:21:47;;;;;;;7.10;2.83;;;;;;;19.12;96.29;102101.81;4951163;28;20045;-68
2021/09/02 08:24:12;;;;;;;6.75;3.30;;;;;;;19.07;94.15;102108.41;4948060;29;20074;-69
2021/09/02 08:26:38;;;;;;;4.20;2.50;;;;;;;19.16;92.69;102106.16;4948486;29;20077;-69
2021/09/02 08:29:03;;;;;;;5.18;2.50;;;;;;;19.30;90.40;102109.00;4949141;28;20118;-69
2021/09/02 08:31:30;;;;;;;3.92;2.20;;;;;;;19.40;88.50;102091.13;4955585;28;20070;-71
2021/09/02 08:33:56;;;;;;;4.75;2.35;;;;;;;19.46;87.09;102098.59;4946711;28;22171;-68
2021/09/02 08:36:21;;;;;;;5.43;2.28;;;;;;;19.44;87.58;102097.41;4933071;29;20047;-69
2021/09/02 08:38:48;;;;;;;5.00;2.45;;;;;;;19.44;87.57;102092.75;4950949;28;20047;-69
2021/09/02 08:41:15;;;;;;;5.35;2.42;;;;;;;19.51;87.34;102103.72;4932747;29;20094;-69
2021/09/02 08:43:42;;;;;;;6.35;2.78;;;;;;;19.54;86.59;102093.97;4929189;29;20054;-68
2021/09/02 08:46:08;;;;;;;5.00;2.42;;;;;;;19.52;86.40;102102.56;4948243;28;20122;-69
2021/09/02 08:48:37;;;;;;;6.75;2.33;;;;;;;19.50;86.99;102099.44;4944184;29;20476;-69
2021/09/02 08:51:04;;;;;;;3.13;2.22;;;;;;;19.52;87.56;102096.31;4971711;28;20494;-69
2021/09/02 08:53:30;;;;;;;6.00;2.45;;;;;;;19.49;87.80;102092.38;5025049;28;20120;-70
2021/09/02 08:55:55;;;;;;;3.15;1.85;;;;;;;19.48;87.53;102090.81;5026519;28;20037;-69
2021/09/02 08:58:24;;;;;;;7.05;2.65;;;;;;;19.51;87.40;102087.31;5006902;28;20045;-69
2021/09/02 09:00:50;;;;;;;6.10;2.50;;;;;;;19.59;87.65;102085.41;5007047;28;20036;-69
2021/09/02 09:03:19;;;;;;;7.88;2.50;;;;;;;19.62;87.59;102090.91;5022895;28;20025;-69
2021/09/02 09:05:53;;;;;;;5.55;2.55;;;;;;;19.60;87.28;102090.53;5010691;28;20481;-69
2021/09/02 09:08:18;;;;;;;5.40;2.72;;;;;;;19.61;87.95;102088.53;5022220;28;20045;-69
2021/09/02 09:10:45;;;;;;;6.70;2.60;;;;;;;19.60;87.38;102087.78;5027518;28;20029;-69
2021/09/02 09:13:11;;;;;;;5.60;2.45;;;;;;;19.59;87.35;102099.06;5025278;28;20033;-69
2021/09/02 09:15:40;;;;;;;4.85;2.45;;;;;;;19.58;87.77;102100.25;5015505;28;20048;-68
2021/09/02 09:18:23;;;;;;;5.72;2.63;;;;;;;19.56;87.04;102092.44;5025911;28;20143;-68
2021/09/02 09:21:07;;;;;;;6.28;2.30;;;;;;;19.39;87.27;102093.09;5022088;28;20144;-69
2021/09/02 09:23:55;;;;;;;3.47;2.38;;;;;;;19.47;87.01;102102.13;5009508;28;20048;-68
2021/09/02 09:26:21;;;;;;;8.13;3.03;;;;;;;19.50;86.67;102102.16;5017055;28;20026;-68
2021/09/02 09:28:47;;;;;;;6.97;2.80;;;;;;;19.57;86.32;102104.13;5028977;28;20025;-69
2021/09/02 09:31:32;;;;;;;5.20;2.35;;;;;;;19.55;86.37;102101.78;5019298;28;20060;-68
2021/09/02 09:34:01;;;;;;;4.18;2.30;;;;;;;19.59;86.04;102107.28;5020254;28;20379;-69
2021/09/02 09:36:29;;;;;;;3.72;2.10;;;;;;;19.63;86.34;102108.88;5021167;28;20091;-68
2021/09/02 09:38:57;;;;;;;4.38;2.55;;;;;;;19.65;86.33;102109.28;5026672;28;20079;-68
2021/09/02 09:41:49;;;;;;;7.95;2.28;;;;;;;19.66;85.55;102110.09;5024791;28;20409;-68
2021/09/02 09:44:29;;;;;;;4.80;2.72;;;;;;;19.68;86.10;102122.22;5022676;28;20643;-68
2021/09/02 09:47:18;;;;;;;7.32;2.83;;;;;;;19.68;85.94;102118.69;5021032;28;20126;-69
2021/09/02 09:49:51;;;;;;;6.72;2.60;;;;;;;19.72;86.58;102116.75;5021080;28;20033;-69
2021/09/02 09:52:41;;;;;;;5.07;2.50;;;;;;;19.66;86.79;102121.00;5002810;28;20041;-68
2021/09/02 09:55:10;;;;;;;5.03;2.47;;;;;;;19.69;86.68;102123.75;5025093;28;20073;-69
2021/09/02 09:57:37;;;;;;;8.73;3.00;;;;;;;19.74;86.10;102130.84;5025966;28;20025;-68
2021/09/02 10:00:14;;;;;;;6.47;2.92;;;;;;;19.65;86.50;102136.63;5025997;28;20037;-68
2021/09/02 10:02:46;;;;;;;5.60;2.90;;;;;;;19.66;86.08;102135.47;5022516;28;20044;-68
2021/09/02 10:05:13;;;;;;;7.45;2.67;;;;;;;19.65;87.01;102139.34;5024642;28;20049;-69
2021/09/02 10:07:41;;;;;;;5.88;2.65;;;;;;;19.64;86.12;102143.28;5027740;28;20033;-69
2021/09/02 10:10:13;;;;;;;5.90;2.90;;;;;;;19.62;86.58;102131.94;5021893;28;20029;-69
2021/09/02 10:12:40;;;;;;;6.53;2.95;;;;;;;19.62;86.01;102137.41;5026385;28;20033;-68
2021/09/02 10:15:08;;;;;;;6.13;3.00;;;;;;;19.64;86.60;102137.81;5021306;28;20036;-68
2021/09/02 10:17:35;;;;;;;7.15;2.75;;;;;;;19.55;84.97;102131.84;5025041;28;20037;-68
2021/09/02 10:20:09;;;;;;;5.60;3.42;;;;;;;19.62;84.87;102128.41;5021185;28;20386;-69
2021/09/02 10:22:35;;;;;;;4.93;2.63;;;;;;;19.67;85.54;102138.97;5026324;28;20030;-68
2021/09/02 10:25:04;;;;;;;7.30;2.90;;;;;;;19.68;85.79;102127.69;5024752;28;20033;-68
2021/09/02 10:27:34;;;;;;;4.18;2.60;;;;;;;19.71;85.00;102135.09;5023812;28;20847;-69
2021/09/02 10:30:18;;;;;;;5.60;2.85;;;;;;;19.68;84.03;102138.63;5025629;28;20040;-68
2021/09/02 10:32:44;;;;;;;7.72;2.75;;;;;;;19.63;84.04;102135.44;5016072;28;20040;-68
2021/09/02 10:35:11;;;;;;;4.90;2.95;;;;;;;19.75;83.81;102138.66;5024448;28;20481;-68
2021/09/02 10:37:37;;;;;;;8.57;2.88;;;;;;;19.76;84.94;102144.91;5018279;28;20048;-68
2021/09/02 10:40:26;;;;;;;4.43;2.70;;;;;;;19.84;84.59;102143.78;5024861;28;20041;-68
2021/09/02 10:42:57;;;;;;;4.13;2.60;;;;;;;19.93;85.08;102137.97;5028258;28;20025;-68
2021/09/02 10:45:30;;;;;;;5.78;2.70;;;;;;;19.88;84.49;102141.09;5019356;28;20029;-67
2021/09/02 10:47:56;;;;;;;7.30;2.95;;;;;;;19.95;83.65;102141.91;5039126;23;20422;-67
2021/09/02 10:50:35;;;;;;;6.53;2.90;;;;;;;19.96;83.63;102142.66;4975206;28;20042;-70
2021/09/02 10:53:12;;;;;;;12.63;3.33;;;;;;;20.02;83.71;102143.88;5001462;28;20035;-69
2021/09/02 10:55:40;;;;;;;4.60;2.67;;;;;;;20.04;83.26;102141.56;4979765;28;20042;-69
2021/09/02 10:58:09;;;;;;;5.00;2.58;;;;;;;20.01;83.72;102134.91;4986353;28;20479;-68
2021/09/02 11:00:39;;;;;;;5.35;2.78;;;;;;;20.05;82.54;102141.19;4984284;28;20030;-68
2021/09/02 11:03:17;;;;;;;8.57;2.53;;;;;;;20.05;83.72;102145.88;4986588;28;20434;-69
2021/09/02 11:05:51;;;;;;;6.85;2.70;;;;;;;20.00;82.53;102147.00;5001513;28;20034;-69
2021/09/02 11:08:32;;;;;;;6.15;2.47;;;;;;;20.01;82.93;102147.81;4969458;28;20667;-68
2021/09/02 11:11:15;;;;;;;5.25;2.35;;;;;;;20.07;82.48;102154.47;4984066;28;20443;-69
2021/09/02 11:13:43;;;;;;;5.28;2.80;;;;;;;20.08;83.33;102159.56;4985411;28;20487;-70
2021/09/02 11:16:11;;;;;;;2.80;2.28;;;;;;;19.89;82.79;102156.31;4983054;28;20040;-68
2021/09/02 11:18:44;;;;;;;6.68;2.63;;;;;;;19.99;82.33;102156.41;4986779;28;20134;-68
2021/09/02 11:21:17;;;;;;;5.20;3.00;;;;;;;20.05;82.31;102156.81;4985842;28;20030;-66